Time;durP1;ratioP1;P1;durP2;ratioP2;P2;SDS_P1;SDS_P2;PMS_P1;PMS_P2;Temp;Humidity;BMP_temperature;BMP_pressure;BME280_temperature;BME280_humidity;BME280_pressure;Samples;Min_cycle;Max_cycle;Signal;HPM_P1;HPM_P2
2019/04/27 00:02:19;;;;;;;4.6;4.2;;;;;;;;;;;;;
2019/04/27 00:04:44;;;;;;;4.5;4.1;;;;;;;;;;;;;
2019/04/27 00:09:42;;;;;;;4.6;4.2;;;;;;;;;;;;;
2019/04/27 00:12:05;;;;;;;5;4.4;;;;;;;;;;;;;
2019/04/27 00:14:28;;;;;;;5.4;4.9;;;;;;;;;;;;;
2019/04/27 00:24:21;;;;;;;7.6;6.9;;;;;;;;;;;;;
2019/04/27 00:26:45;;;;;;;7.7;7.1;;;;;;;;;;;;;
2019/04/27 00:29:11;;;;;;;8.4;7.7;;;;;;;;;;;;;
2019/04/27 00:31:36;;;;;;;8.1;7.4;;;;;;;;;;;;;
2019/04/27 00:34:01;;;;;;;8.9;8;;;;;;;;;;;;;
2019/04/27 00:36:33;;;;;;;8.8;8;;;;;;;;;;;;;
2019/04/27 00:38:57;;;;;;;9;8.2;;;;;;;;;;;;;
2019/04/27 00:41:17;;;;;;;9.1;8.2;;;;;;;;;;;;;
2019/04/27 00:43:42;;;;;;;9.9;9;;;;;;;;;;;;;
2019/04/27 00:46:07;;;;;;;9.8;8.9;;;;;;;;;;;;;
2019/04/27 00:48:32;;;;;;;10;9.1;;;;;;;;;;;;;
2019/04/27 00:50:58;;;;;;;9.8;9;;;;;;;;;;;;;
2019/04/27 00:53:23;;;;;;;11;10;;;;;;;;;;;;;
2019/04/27 00:58:20;;;;;;;11.9;10.9;;;;;;;;;;;;;
2019/04/27 01:00:52;;;;;;;12.1;11;;;;;;;;;;;;;
2019/04/27 01:03:15;;;;;;;11.9;10.8;;;;;;;;;;;;;
2019/04/27 01:05:30;;;;;;;11.7;10.6;;;;;;;;;;;;;
2019/04/27 01:07:56;;;;;;;11.5;10.5;;;;;;;;;;;;;
2019/04/27 01:10:26;;;;;;;11.5;10.4;;;;;;;;;;;;;
2019/04/27 01:12:51;;;;;;;11.1;10.1;;;;;;;;;;;;;
2019/04/27 01:15:18;;;;;;;12.4;11.3;;;;;;;;;;;;;
2019/04/27 01:17:43;;;;;;;10.5;9.6;;;;;;;;;;;;;
2019/04/27 01:20:08;;;;;;;12.2;11.1;;;;;;;;;;;;;
2019/04/27 01:22:35;;;;;;;13.3;12.1;;;;;;;;;;;;;
2019/04/27 01:25:00;;;;;;;13.9;12.6;;;;;;;;;;;;;
2019/04/27 01:27:49;;;;;;;11.3;10.2;;;;;;;;;;;;;
2019/04/27 01:30:01;;;;;;;12.2;11.1;;;;;;;;;;;;;
2019/04/27 01:32:26;;;;;;;11.8;10.7;;;;;;;;;;;;;
2019/04/27 01:34:51;;;;;;;13;11.8;;;;;;;;;;;;;
2019/04/27 01:37:18;;;;;;;13.8;12.6;;;;;;;;;;;;;
2019/04/27 01:39:43;;;;;;;14;12.7;;;;;;;;;;;;;
2019/04/27 01:42:09;;;;;;;12.5;11.3;;;;;;;;;;;;;
2019/04/27 01:44:34;;;;;;;12.8;11.7;;;;;;;;;;;;;
2019/04/27 01:47:00;;;;;;;14;12.8;;;;;;;;;;;;;
2019/04/27 01:49:25;;;;;;;13.3;12.1;;;;;;;;;;;;;
2019/04/27 01:51:50;;;;;;;13.5;12.2;;;;;;;;;;;;;
2019/04/27 01:54:16;;;;;;;11.9;10.8;;;;;;;;;;;;;
2019/04/27 01:56:41;;;;;;;12.4;11.3;;;;;;;;;;;;;
2019/04/27 01:59:09;;;;;;;13.3;12.1;;;;;;;;;;;;;
2019/04/27 02:04:12;;;;;;;13;11.9;;;;;;;;;;;;;
2019/04/27 02:06:30;;;;;;;13.9;12.7;;;;;;;;;;;;;
2019/04/27 02:08:55;;;;;;;14.9;13.6;;;;;;;;;;;;;
2019/04/27 02:11:20;;;;;;;14.7;13.3;;;;;;;;;;;;;
2019/04/27 02:13:45;;;;;;;13.9;12.7;;;;;;;;;;;;;
2019/04/27 02:16:10;;;;;;;13.7;12.5;;;;;;;;;;;;;
2019/04/27 02:18:35;;;;;;;14.5;13.2;;;;;;;;;;;;;
2019/04/27 02:21:00;;;;;;;15.6;14.2;;;;;;;;;;;;;
2019/04/27 02:23:25;;;;;;;15.5;14.1;;;;;;;;;;;;;
2019/04/27 02:25:53;;;;;;;15.2;13.8;;;;;;;;;;;;;
2019/04/27 02:28:33;;;;;;;15;13.6;;;;;;;;;;;;;
2019/04/27 02:31:09;;;;;;;15.8;14.3;;;;;;;;;;;;;
2019/04/27 02:33:16;;;;;;;15.6;14.2;;;;;;;;;;;;;
2019/04/27 02:35:33;;;;;;;17.3;15.7;;;;;;;;;;;;;
2019/04/27 02:37:58;;;;;;;17.7;16;;;;;;;;;;;;;
2019/04/27 02:40:30;;;;;;;17.4;15.8;;;;;;;;;;;;;
2019/04/27 02:42:56;;;;;;;16;14.6;;;;;;;;;;;;;
2019/04/27 02:45:20;;;;;;;16.4;14.9;;;;;;;;;;;;;
2019/04/27 02:47:46;;;;;;;15.2;13.7;;;;;;;;;;;;;
2019/04/27 02:50:11;;;;;;;16.5;15;;;;;;;;;;;;;
2019/04/27 02:52:40;;;;;;;16.5;14.9;;;;;;;;;;;;;
2019/04/27 02:55:02;;;;;;;15.5;14;;;;;;;;;;;;;
2019/04/27 02:57:27;;;;;;;17.2;15.6;;;;;;;;;;;;;
2019/04/27 02:59:52;;;;;;;16.8;15.3;;;;;;;;;;;;;
2019/04/27 03:02:24;;;;;;;16.2;14.7;;;;;;;;;;;;;
2019/04/27 03:04:43;;;;;;;17.2;15.6;;;;;;;;;;;;;
2019/04/27 03:07:10;;;;;;;14.5;13.1;;;;;;;;;;;;;
2019/04/27 03:09:35;;;;;;;15;13.7;;;;;;;;;;;;;
2019/04/27 03:12:01;;;;;;;15.8;14.3;;;;;;;;;;;;;
2019/04/27 03:14:46;;;;;;;15.2;13.9;;;;;;;;;;;;;
2019/04/27 03:16:57;;;;;;;15.3;13.8;;;;;;;;;;;;;
2019/04/27 03:19:33;;;;;;;14.3;13;;;;;;;;;;;;;
2019/04/27 03:24:07;;;;;;;15.3;13.9;;;;;;;;;;;;;
2019/04/27 03:28:57;;;;;;;16;14.5;;;;;;;;;;;;;
2019/04/27 03:31:22;;;;;;;15.4;14;;;;;;;;;;;;;
2019/04/27 03:33:47;;;;;;;14.3;13;;;;;;;;;;;;;
2019/04/27 03:36:12;;;;;;;13.9;12.7;;;;;;;;;;;;;
2019/04/27 03:38:38;;;;;;;15;13.6;;;;;;;;;;;;;
2019/04/27 03:41:03;;;;;;;14.8;13.5;;;;;;;;;;;;;
2019/04/27 03:43:28;;;;;;;15.8;14.3;;;;;;;;;;;;;
2019/04/27 03:45:53;;;;;;;15.4;14;;;;;;;;;;;;;
2019/04/27 03:48:20;;;;;;;15;13.6;;;;;;;;;;;;;
2019/04/27 03:50:54;;;;;;;14.4;13.1;;;;;;;;;;;;;
2019/04/27 03:53:23;;;;;;;14.7;13.3;;;;;;;;;;;;;
2019/04/27 03:55:37;;;;;;;14.6;13.2;;;;;;;;;;;;;
2019/04/27 03:58:10;;;;;;;15.7;14.1;;;;;;;;;;;;;
2019/04/27 04:02:50;;;;;;;14.5;13.2;;;;;;;6.43;89.36328;960.3293;;;;
2019/04/27 04:05:15;;;;;;;14.9;13.6;;;;;;;6.44;89.44336;960.269;;;;
2019/04/27 04:07:40;;;;;;;15;13.6;;;;;;;6.37;89.46484;960.3639;;;;
2019/04/27 04:10:05;;;;;;;14.5;13.1;;;;;;;6.41;89.40332;960.3098;;;;
2019/04/27 04:12:38;;;;;;;15;13.6;;;;;;;6.35;90.24902;960.3066;;;;
2019/04/27 04:14:55;;;;;;;15.7;14.2;;;;;;;6.32;89.76367;960.3044;;;;
2019/04/27 04:17:20;;;;;;;14.2;12.9;;;;;;;6.34;89.61719;960.2993;;;;
2019/04/27 04:19:45;;;;;;;15.2;13.8;;;;;;;6.35;89.84961;960.3273;;;;
2019/04/27 04:22:10;;;;;;;15.6;14.1;;;;;;;6.36;89.80371;960.3186;;;;
2019/04/27 04:24:35;;;;;;;15.1;13.7;;;;;;;6.38;89.94629;960.2825;;;;
2019/04/27 04:27:00;;;;;;;15.3;13.8;;;;;;;6.4;90.08691;960.2938;;;;
2019/04/27 04:29:26;;;;;;;15.9;14.3;;;;;;;6.38;90.10645;960.3247;;;;
2019/04/27 04:31:51;;;;;;;17;15.4;;;;;;;6.38;89.93457;960.3628;;;;
2019/04/27 04:34:16;;;;;;;15.7;14.2;;;;;;;6.4;89.82422;960.3192;;;;
2019/04/27 04:36:45;;;;;;;15.8;14.3;;;;;;;6.37;90.03613;960.3337;;;;
2019/04/27 04:39:25;;;;;;;14.8;13.4;;;;;;;6.5;89.63965;960.3145;;;;
2019/04/27 04:42:06;;;;;;;15.9;14.4;;;;;;;6.48;89.77246;960.3159;;;;
2019/04/27 04:44:36;;;;;;;17.1;15.5;;;;;;;6.45;89.45898;960.2676;;;;
2019/04/27 04:46:58;;;;;;;15.3;13.8;;;;;;;6.54;89.68262;960.3445;;;;
2019/04/27 04:49:17;;;;;;;17.2;15.5;;;;;;;6.54;90.01465;960.37;;;;
2019/04/27 04:51:42;;;;;;;16.2;14.6;;;;;;;6.56;89.56055;960.3553;;;;
2019/04/27 04:54:08;;;;;;;16.2;14.7;;;;;;;6.68;89.44824;960.3538;;;;
2019/04/27 04:56:33;;;;;;;16.7;15.1;;;;;;;6.65;89.28223;960.3265;;;;
2019/04/27 04:58:58;;;;;;;16;14.5;;;;;;;6.78;89.19434;960.3745;;;;
2019/04/27 05:01:26;;;;;;;15.8;14.2;;;;;;;6.81;88.87012;960.4313;;;;
2019/04/27 05:03:51;;;;;;;16.3;14.7;;;;;;;6.79;88.92285;960.4455;;;;
2019/04/27 05:06:16;;;;;;;14.1;12.8;;;;;;;6.9;88.52246;960.4947;;;;
2019/04/27 05:08:41;;;;;;;16.1;14.5;;;;;;;6.88;88.62109;960.5136;;;;
2019/04/27 05:11:07;;;;;;;15;13.6;;;;;;;6.89;89.02344;960.4961;;;;
2019/04/27 05:13:32;;;;;;;15.2;13.8;;;;;;;7.08;88.14844;960.5341;;;;
2019/04/27 05:16:01;;;;;;;16.9;15.3;;;;;;;6.95;88.52148;960.6006;;;;
2019/04/27 05:18:30;;;;;;;15.6;14.1;;;;;;;7;88.33691;960.6521;;;;
2019/04/27 05:21:00;;;;;;;16.2;14.7;;;;;;;7.01;88.61328;960.6418;;;;
2019/04/27 05:23:37;;;;;;;14.9;13.5;;;;;;;7.07;88.30566;960.6537;;;;
2019/04/27 05:26:05;;;;;;;14.9;13.5;;;;;;;7.08;88.14746;960.6061;;;;
2019/04/27 05:28:36;;;;;;;15.2;13.8;;;;;;;7.09;88.0459;960.6987;;;;
2019/04/27 05:31:04;;;;;;;14.2;12.9;;;;;;;7.14;88.11426;960.6517;;;;
2019/04/27 05:33:30;;;;;;;15.1;13.7;;;;;;;7.04;87.96777;960.7029;;;;
2019/04/27 05:35:55;;;;;;;15.1;13.6;;;;;;;7.06;88.2002;960.68;;;;
2019/04/27 05:38:21;;;;;;;13.5;12.2;;;;;;;7.16;87.75098;960.7307;;;;
2019/04/27 05:40:46;;;;;;;13.5;12.3;;;;;;;7.21;87.41895;960.6795;;;;
2019/04/27 05:43:12;;;;;;;12.4;11.3;;;;;;;7.34;87.24023;960.6376;;;;
2019/04/27 05:45:42;;;;;;;12;10.9;;;;;;;7.49;86.67188;960.697;;;;
2019/04/27 05:48:06;;;;;;;12.8;11.5;;;;;;;7.59;86.50977;960.7045;;;;
2019/04/27 05:50:26;;;;;;;12.4;11.3;;;;;;;7.49;85.75488;960.6842;;;;
2019/04/27 05:52:51;;;;;;;11.9;10.8;;;;;;;7.49;86.38672;960.6412;;;;
2019/04/27 05:55:16;;;;;;;10.3;9.4;;;;;;;7.6;86.04199;960.7333;;;;
2019/04/27 05:57:41;;;;;;;10;9.2;;;;;;;7.71;84.97754;960.6886;;;;
2019/04/27 06:00:07;;;;;;;9.7;8.8;;;;;;;7.69;85.11035;960.7455;;;;
2019/04/27 06:02:40;;;;;;;9.3;8.5;;;;;;;7.78;85.25391;960.7673;;;;
2019/04/27 06:05:07;;;;;;;9.3;8.4;;;;;;;7.88;84.94043;960.7623;;;;
2019/04/27 06:07:38;;;;;;;8.8;8;;;;;;;7.98;83.87012;960.8047;;;;
2019/04/27 06:10:18;;;;;;;9.3;8.5;;;;;;;7.91;84.42773;960.7217;;;;
2019/04/27 06:12:43;;;;;;;9.7;8.8;;;;;;;7.99;84.6748;960.8119;;;;
2019/04/27 06:15:12;;;;;;;8;7.3;;;;;;;8.04;83.58398;960.7853;;;;
2019/04/27 06:17:55;;;;;;;8.1;7.4;;;;;;;8.27;83.45605;960.7598;;;;
2019/04/27 06:20:33;;;;;;;8.5;7.8;;;;;;;8.25;84.65723;960.8131;;;;
2019/04/27 06:22:58;;;;;;;7.6;6.9;;;;;;;8.3;82.6709;960.7952;;;;
2019/04/27 06:25:25;;;;;;;8.6;7.9;;;;;;;8.33;83.85938;960.7709;;;;
2019/04/27 06:27:57;;;;;;;7.1;6.5;;;;;;;8.49;82.76367;960.7095;;;;
2019/04/27 06:30:22;;;;;;;7.2;6.5;;;;;;;8.51;83.77832;960.8438;;;;
2019/04/27 06:32:47;;;;;;;7.1;6.5;;;;;;;8.69;81.19336;960.7034;;;;
2019/04/27 06:35:12;;;;;;;7;6.4;;;;;;;8.75;81.61914;960.6887;;;;
2019/04/27 06:37:40;;;;;;;6.7;6.1;;;;;;;8.75;81.29492;960.6384;;;;
2019/04/27 06:40:05;;;;;;;6.9;6.2;;;;;;;9.01;80.93164;960.6508;;;;
2019/04/27 06:42:30;;;;;;;6.3;5.7;;;;;;;8.91;80.6377;960.6692;;;;
2019/04/27 06:44:55;;;;;;;6;5.5;;;;;;;8.91;80.82031;960.6995;;;;
2019/04/27 06:47:21;;;;;;;5.6;5.1;;;;;;;9.13;80.14844;960.725;;;;
2019/04/27 06:49:46;;;;;;;5.8;5.2;;;;;;;9.48;80.59375;960.6305;;;;
2019/04/27 06:52:11;;;;;;;5;4.5;;;;;;;9.4;80.34961;960.6468;;;;
2019/04/27 06:54:36;;;;;;;5.3;4.9;;;;;;;9.19;80.72363;960.6591;;;;
2019/04/27 06:57:02;;;;;;;5.3;4.8;;;;;;;9.25;79.7002;960.6234;;;;
2019/04/27 06:59:31;;;;;;;4.9;4.5;;;;;;;9.21;81.28125;960.6187;;;;
2019/04/27 07:01:56;;;;;;;4.6;4.2;;;;;;;9.4;78.78516;960.6005;;;;
2019/04/27 07:04:21;;;;;;;4.7;4.3;;;;;;;9.26;79.90918;960.6652;;;;
2019/04/27 07:06:46;;;;;;;4.3;3.9;;;;;;;9.45;78.36914;960.5784;;;;
2019/04/27 07:09:13;;;;;;;4.1;3.8;;;;;;;9.6;79.03906;960.6356;;;;
2019/04/27 07:11:38;;;;;;;4.8;3.6;;;;;;;9.57;77.13379;960.6006;;;;
2019/04/27 07:14:03;;;;;;;3.6;3.3;;;;;;;9.6;75.10352;960.7242;;;;
2019/04/27 07:16:37;;;;;;;4.7;4;;;;;;;9.53;78.46191;960.6083;;;;
2019/04/27 07:19:04;;;;;;;3.4;3.1;;;;;;;9.7;76.4668;960.6259;;;;
2019/04/27 07:21:29;;;;;;;3.2;2.9;;;;;;;9.8;76.94629;960.615;;;;
2019/04/27 07:23:59;;;;;;;3;2.8;;;;;;;9.92;75.04297;960.5859;;;;
2019/04/27 07:26:29;;;;;;;3.6;3;;;;;;;9.91;75.95117;960.5786;;;;
2019/04/27 07:28:56;;;;;;;3.3;3;;;;;;;10.09;76.3877;960.5474;;;;
2019/04/27 07:31:21;;;;;;;3;2.8;;;;;;;10.29;75.47656;960.532;;;;
2019/04/27 07:33:47;;;;;;;3;2.7;;;;;;;10.34;75.08105;960.5775;;;;
2019/04/27 07:36:12;;;;;;;3;2.8;;;;;;;10.31;74.63672;960.611;;;;
2019/04/27 07:38:37;;;;;;;2.7;2.5;;;;;;;10.42;75.1875;960.5266;;;;
2019/04/27 07:41:02;;;;;;;3.3;2.7;;;;;;;10.65;74.77734;960.5283;;;;
2019/04/27 07:43:36;;;;;;;3.4;2.6;;;;;;;10.58;72.35352;960.4844;;;;
2019/04/27 07:45:52;;;;;;;2.9;2.4;;;;;;;10.92;74.33887;960.5435;;;;
2019/04/27 07:48:17;;;;;;;2.8;2.6;;;;;;;10.76;72.66016;960.5084;;;;
2019/04/27 07:50:43;;;;;;;3.4;2.6;;;;;;;10.64;73.08984;960.5172;;;;
2019/04/27 07:53:09;;;;;;;2.8;2.6;;;;;;;10.92;73.14941;960.4745;;;;
2019/04/27 07:56:12;;;;;;;2.7;2.5;;;;;;;10.93;72.23828;960.4353;;;;
2019/04/27 07:58:44;;;;;;;2.9;2.7;;;;;;;10.94;71.31641;960.4131;;;;
2019/04/27 08:01:18;;;;;;;3.1;2.3;;;;;;;11.15;71.60547;960.4246;;;;
2019/04/27 08:03:54;;;;;;;3.1;2.5;;;;;;;11.39;70.89355;960.4202;;;;
2019/04/27 08:06:19;;;;;;;3.4;2.5;;;;;;;11.53;69.36621;960.3589;;;;
2019/04/27 08:08:49;;;;;;;2.8;2.3;;;;;;;11.63;70.31934;960.5009;;;;
2019/04/27 08:11:18;;;;;;;2.7;2.5;;;;;;;11.8;68.20605;960.4235;;;;
2019/04/27 08:13:43;;;;;;;2.6;2.4;;;;;;;11.91;69.48438;960.3391;;;;
2019/04/27 08:16:08;;;;;;;3.3;2;;;;;;;11.85;68.57324;960.3962;;;;
2019/04/27 08:18:35;;;;;;;2.9;2.3;;;;;;;11.96;67.25977;960.3758;;;;
2019/04/27 08:21:01;;;;;;;3.1;2;;;;;;;12.28;68.93066;960.4093;;;;
2019/04/27 08:23:32;;;;;;;2.1;1.6;;;;;;;12.27;64.9668;960.3115;;;;
2019/04/27 08:25:58;;;;;;;2.3;1.9;;;;;;;12.68;65.62012;960.3006;;;;
2019/04/27 08:28:34;;;;;;;2.2;2;;;;;;;12.73;66.0918;960.3329;;;;
2019/04/27 08:33:17;;;;;;;2.7;1.7;;;;;;;12.02;65.25391;960.3434;;;;
2019/04/27 08:35:42;;;;;;;1.9;1.7;;;;;;;12.47;67.22266;960.3059;;;;
2019/04/27 08:38:30;;;;;;;2.1;1.9;;;;;;;12.58;64.50195;960.3119;;;;
2019/04/27 08:40:55;;;;;;;2.8;1.8;;;;;;;12.28;64.14551;960.2385;;;;
2019/04/27 08:43:20;;;;;;;2.1;1.6;;;;;;;12.92;65.31836;960.149;;;;
2019/04/27 08:45:48;;;;;;;2.2;1.7;;;;;;;12.75;68.56445;960.1853;;;;
2019/04/27 08:48:14;;;;;;;2.7;1.9;;;;;;;12.14;66.37305;960.2194;;;;
2019/04/27 08:50:39;;;;;;;3;1.6;;;;;;;12.32;65.93555;960.1998;;;;
2019/04/27 08:53:23;;;;;;;1.8;1.5;;;;;;;12.61;65.22656;960.1236;;;;
2019/04/27 08:55:49;;;;;;;1.9;1.5;;;;;;;12.74;63.53027;960.1089;;;;
2019/04/27 08:58:14;;;;;;;2.3;1.3;;;;;;;13.07;62.66113;960.0586;;;;
2019/04/27 09:00:39;;;;;;;2.2;1.4;;;;;;;13.6;60.77344;960.1086;;;;
2019/04/27 09:03:05;;;;;;;2.5;1.5;;;;;;;13.29;62.37891;960.1885;;;;
2019/04/27 09:05:29;;;;;;;1.5;1.4;;;;;;;13.5;60.6543;960.0823;;;;
2019/04/27 09:12:56;;;;;;;1.4;1.3;;;;;;;13.13;60.45313;960.0298;;;;
2019/04/27 09:15:18;;;;;;;1.9;1.4;;;;;;;13.24;60.99121;959.9665;;;;
2019/04/27 09:17:55;;;;;;;1.9;1.4;;;;;;;12.92;62.45313;960.076;;;;
2019/04/27 09:20:32;;;;;;;3.5;1.7;;;;;;;12.37;63.92871;960.0092;;;;
2019/04/27 09:22:53;;;;;;;1.7;1.6;;;;;;;12.87;63.9541;959.9706;;;;
2019/04/27 09:25:18;;;;;;;1.8;1.5;;;;;;;13.13;61.16016;959.9793;;;;
2019/04/27 09:27:43;;;;;;;1.6;1.5;;;;;;;12.45;63.02344;960.0352;;;;
2019/04/27 09:30:08;;;;;;;1.7;1.5;;;;;;;12.91;60.89844;960.077;;;;
2019/04/27 09:32:33;;;;;;;1.7;1.4;;;;;;;13.02;60.99414;959.9235;;;;
2019/04/27 09:34:58;;;;;;;1.7;1.4;;;;;;;13.54;61.39258;959.9108;;;;
2019/04/27 09:37:25;;;;;;;1.6;1.3;;;;;;;13.7;58.11523;959.9256;;;;
2019/04/27 09:39:51;;;;;;;2.2;1.1;;;;;;;13.31;58.22461;959.8347;;;;
2019/04/27 09:42:16;;;;;;;1.3;1.2;;;;;;;13.23;59.03906;959.8731;;;;
2019/04/27 09:44:40;;;;;;;1.8;1.3;;;;;;;12.99;57.78809;959.9003;;;;
2019/04/27 09:47:06;;;;;;;2.3;1.3;;;;;;;12.94;61.04102;959.868;;;;
2019/04/27 09:49:31;;;;;;;2.5;1.5;;;;;;;12.91;59.99219;959.9277;;;;
2019/04/27 09:51:58;;;;;;;1.5;1.1;;;;;;;12.55;60.95117;959.7712;;;;
2019/04/27 09:54:24;;;;;;;1.6;1.1;;;;;;;12.97;60.62695;959.7961;;;;
2019/04/27 09:56:49;;;;;;;1.6;1.2;;;;;;;12.8;59.68848;959.7425;;;;
2019/04/27 09:59:18;;;;;;;2.4;1.1;;;;;;;13.33;58.48242;959.7897;;;;
2019/04/27 10:01:43;;;;;;;1.4;1.1;;;;;;;14.52;57.05957;959.7333;;;;
2019/04/27 10:04:08;;;;;;;1.7;1.4;;;;;;;13.82;56.78125;959.7965;;;;
2019/04/27 10:06:36;;;;;;;1.4;1.2;;;;;;;13.48;58.21289;959.7628;;;;
2019/04/27 10:09:04;;;;;;;2.2;1.1;;;;;;;13.19;58.93848;959.7972;;;;
2019/04/27 10:11:31;;;;;;;1.6;1.2;;;;;;;12.87;61.51855;959.8886;;;;
2019/04/27 10:13:56;;;;;;;3.2;1.5;;;;;;;12.33;68.38379;959.9453;;;;
2019/04/27 10:16:24;;;;;;;2.9;1.7;;;;;;;11.2;74.58301;959.9842;;;;
2019/04/27 10:18:49;;;;;;;3.4;1.8;;;;;;;10.85;73.34473;959.8931;;;;
2019/04/27 10:21:17;;;;;;;3;2.1;;;;;;;10.81;77.05664;959.8331;;;;
2019/04/27 10:23:42;;;;;;;2.6;2.2;;;;;;;10.75;76.21484;959.7626;;;;
2019/04/27 10:26:07;;;;;;;3.2;2.1;;;;;;;10.77;77.52051;959.7572;;;;
2019/04/27 10:28:33;;;;;;;2.6;2.2;;;;;;;10.97;79.48828;959.6494;;;;
2019/04/27 10:30:59;;;;;;;4;2.3;;;;;;;11.82;75.08398;959.7969;;;;
2019/04/27 10:33:27;;;;;;;6;2.4;;;;;;;12.06;74.06055;959.7018;;;;
2019/04/27 10:35:52;;;;;;;2;1.6;;;;;;;12.14;69.92676;959.7664;;;;
2019/04/27 10:38:33;;;;;;;3.4;1.8;;;;;;;12.33;67.50098;959.6895;;;;
2019/04/27 10:41:03;;;;;;;4.2;1.7;;;;;;;12.71;65.46289;959.7184;;;;
2019/04/27 10:43:28;;;;;;;2.9;1.8;;;;;;;12.49;67.71289;959.6666;;;;
2019/04/27 10:45:54;;;;;;;3.7;1.9;;;;;;;12.27;68.00195;959.6531;;;;
2019/04/27 10:48:21;;;;;;;2.9;1.9;;;;;;;12.04;67.58398;959.863;;;;
2019/04/27 10:51:01;;;;;;;2.6;1.8;;;;;;;11.95;66.71289;959.817;;;;
2019/04/27 10:53:26;;;;;;;4.1;2.1;;;;;;;12;69.5;959.8675;;;;
2019/04/27 10:55:51;;;;;;;3.5;1.9;;;;;;;11.93;65.21875;959.7803;;;;
2019/04/27 10:58:16;;;;;;;3.8;2.1;;;;;;;11.77;65.46875;959.8883;;;;
2019/04/27 11:00:50;;;;;;;2.2;2;;;;;;;11.91;67.47168;959.864;;;;
2019/04/27 11:03:16;;;;;;;5;2.1;;;;;;;12.14;65.89648;959.7623;;;;
2019/04/27 11:05:51;;;;;;;3.7;2.1;;;;;;;12.53;64.4707;959.7953;;;;
2019/04/27 11:08:07;;;;;;;3;2.3;;;;;;;12.22;66.18848;959.8468;;;;
2019/04/27 11:10:37;;;;;;;3.6;2.2;;;;;;;11.94;67.23242;959.7883;;;;
2019/04/27 11:13:10;;;;;;;3.3;2.1;;;;;;;11.83;67.30859;959.9156;;;;
2019/04/27 11:15:37;;;;;;;3.7;2.1;;;;;;;11.74;66.42578;959.8189;;;;
2019/04/27 11:18:02;;;;;;;4;2;;;;;;;11.52;66.11621;959.7486;;;;
2019/04/27 11:20:29;;;;;;;3.3;2.1;;;;;;;11.23;67.01953;959.7071;;;;
2019/04/27 11:23:05;;;;;;;2.2;1.9;;;;;;;11.34;68.00684;959.6702;;;;
2019/04/27 11:25:30;;;;;;;2;1.8;;;;;;;11.48;67.38184;959.7567;;;;
2019/04/27 11:28:12;;;;;;;2.4;1.9;;;;;;;11.84;67.73828;959.6454;;;;
2019/04/27 11:30:37;;;;;;;2.2;1.9;;;;;;;11.81;66.80859;959.6525;;;;
2019/04/27 11:33:03;;;;;;;2.1;1.9;;;;;;;12.12;66.39258;959.5627;;;;
2019/04/27 11:35:40;;;;;;;2.2;1.8;;;;;;;12.38;65.30859;959.5977;;;;
2019/04/27 11:38:21;;;;;;;3.2;1.8;;;;;;;12.74;64.24805;959.5745;;;;
2019/04/27 11:40:50;;;;;;;1.9;1.6;;;;;;;12.43;63.58984;959.6131;;;;
2019/04/27 11:43:15;;;;;;;2.4;1.7;;;;;;;12.8;63.38867;959.4857;;;;
2019/04/27 11:45:40;;;;;;;1.6;1.5;;;;;;;12.56;64.07227;959.5472;;;;
2019/04/27 11:48:08;;;;;;;2.2;1.3;;;;;;;12.98;61.62598;959.5258;;;;
2019/04/27 11:50:40;;;;;;;2.1;1.6;;;;;;;12.98;61.97461;959.423;;;;
2019/04/27 11:53:16;;;;;;;1.3;1.2;;;;;;;13.24;62.84766;959.3803;;;;
2019/04/27 11:55:41;;;;;;;1.7;1.4;;;;;;;13.65;62.1875;959.4177;;;;
2019/04/27 11:58:06;;;;;;;2;1.3;;;;;;;14.55;59.24023;959.5154;;;;
2019/04/27 12:00:36;;;;;;;0.9;0.8;;;;;;;14.85;54.04883;959.5731;;;;
2019/04/27 12:03:01;;;;;;;1.4;0.9;;;;;;;14.73;55.49023;959.601;;;;
2019/04/27 12:05:26;;;;;;;1.4;1;;;;;;;15.75;51.94238;959.4774;;;;
2019/04/27 12:07:51;;;;;;;1.4;0.8;;;;;;;16.21;48.88672;959.4369;;;;
2019/04/27 12:10:17;;;;;;;1.6;0.9;;;;;;;14.49;55.18066;959.4546;;;;
2019/04/27 12:12:52;;;;;;;1.6;0.9;;;;;;;14.2;54.6084;959.5527;;;;
2019/04/27 12:15:17;;;;;;;2.1;1.1;;;;;;;15.13;55.10938;959.418;;;;
2019/04/27 12:18:04;;;;;;;2.1;1;;;;;;;14.65;54.14063;959.5894;;;;
2019/04/27 12:20:31;;;;;;;1.9;1;;;;;;;15.1;52.69141;959.4528;;;;
2019/04/27 12:22:56;;;;;;;1.4;0.8;;;;;;;15.9;51.49316;959.3688;;;;
2019/04/27 12:25:21;;;;;;;1.4;0.7;;;;;;;16.22;52.25488;959.3286;;;;
2019/04/27 12:30:19;;;;;;;1.6;0.8;;;;;;;14.49;51.62988;959.3773;;;;
2019/04/27 12:32:38;;;;;;;1.8;0.6;;;;;;;14.31;53.21387;959.351;;;;
2019/04/27 12:35:03;;;;;;;1.5;0.8;;;;;;;14.7;52.5625;959.3423;;;;
2019/04/27 12:37:31;;;;;;;2.8;0.8;;;;;;;14.03;54.45898;959.299;;;;
2019/04/27 12:39:59;;;;;;;1.5;0.7;;;;;;;14.3;52.28125;959.2971;;;;
2019/04/27 12:42:24;;;;;;;1;0.6;;;;;;;13.68;53.89258;959.2935;;;;
2019/04/27 12:44:49;;;;;;;2.1;0.7;;;;;;;14.3;51.72266;959.2241;;;;
2019/04/27 12:47:18;;;;;;;1.2;0.9;;;;;;;14.69;53.93652;959.3569;;;;
2019/04/27 12:49:48;;;;;;;0.8;0.7;;;;;;;16.32;48.8291;959.1467;;;;
2019/04/27 12:52:13;;;;;;;0.7;0.7;;;;;;;15.01;51.7959;959.3264;;;;
2019/04/27 12:55:07;;;;;;;1.1;0.6;;;;;;;14.99;51.8291;959.1001;;;;
2019/04/27 12:57:31;;;;;;;1.5;0.7;;;;;;;13.63;53.58398;959.3342;;;;
2019/04/27 13:00:18;;;;;;;2.1;0.8;;;;;;;13.9;53.96582;959.1648;;;;
2019/04/27 13:02:59;;;;;;;1.1;0.9;;;;;;;13.93;52.13281;959.084;;;;
2019/04/27 13:05:41;;;;;;;1;0.9;;;;;;;13.68;53.38086;959.1269;;;;
2019/04/27 13:08:24;;;;;;;1.1;0.9;;;;;;;13.74;51.83008;959.1071;;;;
2019/04/27 13:11:05;;;;;;;1.7;0.9;;;;;;;14.09;51.81445;959.0005;;;;
2019/04/27 13:13:46;;;;;;;1.9;1.1;;;;;;;15.65;49.78125;959.0356;;;;
2019/04/27 13:16:26;;;;;;;3.4;1.1;;;;;;;15.98;47.26074;959.079;;;;
2019/04/27 13:19:06;;;;;;;1.3;0.9;;;;;;;15.24;47.28516;959.0181;;;;
2019/04/27 13:21:46;;;;;;;1;0.9;;;;;;;16.11;45.75488;958.9678;;;;
2019/04/27 13:24:27;;;;;;;1.8;1;;;;;;;14.54;51.53027;959.0023;;;;
2019/04/27 13:27:08;;;;;;;2.3;1.1;;;;;;;14.57;49.77441;958.8826;;;;
2019/04/27 13:29:49;;;;;;;1.9;1.1;;;;;;;14.13;51.15527;958.8583;;;;
2019/04/27 13:32:29;;;;;;;1.8;1;;;;;;;13.76;51.54297;958.8805;;;;
2019/04/27 13:35:08;;;;;;;1.7;1.3;;;;;;;13.94;53.22656;958.7693;;;;
2019/04/27 13:37:49;;;;;;;1.7;1.1;;;;;;;13.71;51.12988;958.7712;;;;
2019/04/27 13:40:32;;;;;;;2.4;1.1;;;;;;;14.76;49.63281;958.8204;;;;
2019/04/27 13:43:25;;;;;;;1.7;1.1;;;;;;;13.96;51.46289;958.7153;;;;
2019/04/27 13:45:50;;;;;;;2.3;1.1;;;;;;;14.02;49.17773;958.7978;;;;
2019/04/27 13:50:56;;;;;;;2.1;0.9;;;;;;;14.03;51.94727;958.72;;;;
2019/04/27 13:53:32;;;;;;;1.3;1.1;;;;;;;14.15;50.85645;958.7614;;;;
2019/04/27 13:56:15;;;;;;;1.3;1.2;;;;;;;13.35;50.27441;958.8447;;;;
2019/04/27 13:58:55;;;;;;;1.9;1.1;;;;;;;13.09;52.87988;958.8915;;;;
2019/04/27 14:01:38;;;;;;;1.5;1;;;;;;;13.03;51.49121;958.6459;;;;
2019/04/27 14:04:20;;;;;;;1.5;1;;;;;;;12.83;53.60254;958.7548;;;;
2019/04/27 14:06:51;;;;;;;1.2;1.1;;;;;;;12.92;52.73145;958.5812;;;;
2019/04/27 14:09:23;;;;;;;2.3;1.2;;;;;;;13.57;51.9502;958.574;;;;
2019/04/27 14:12:01;;;;;;;1.6;1.1;;;;;;;13.84;49.93652;958.5242;;;;
2019/04/27 14:14:21;;;;;;;1.9;1.2;;;;;;;14.24;48.49219;958.4888;;;;
2019/04/27 14:16:45;;;;;;;1.7;1.2;;;;;;;14.17;49.21777;958.4587;;;;
2019/04/27 14:19:13;;;;;;;1.3;1.1;;;;;;;14.21;50.76855;958.4756;;;;
2019/04/27 14:21:44;;;;;;;1.5;1;;;;;;;14.42;50.96777;958.39;;;;
2019/04/27 14:24:13;;;;;;;2.1;1.2;;;;;;;13.99;49.73242;958.2792;;;;
2019/04/27 14:26:46;;;;;;;2.5;1.2;;;;;;;13.63;52.62012;958.1891;;;;
2019/04/27 14:29:14;;;;;;;1.4;1.1;;;;;;;13.63;52.14258;958.1205;;;;
2019/04/27 14:31:42;;;;;;;1.6;1.1;;;;;;;13.53;52.40918;958.0821;;;;
2019/04/27 14:34:08;;;;;;;1.5;1.2;;;;;;;14.15;50.49609;958.1218;;;;
2019/04/27 14:36:32;;;;;;;1.4;1.2;;;;;;;14.53;49.60645;958.1752;;;;
2019/04/27 14:39:01;;;;;;;2.9;1.1;;;;;;;14.82;49.69922;958.0862;;;;
2019/04/27 14:41:36;;;;;;;1.7;1.2;;;;;;;13.88;52.52246;958.0773;;;;
2019/04/27 14:44:07;;;;;;;2.2;1.3;;;;;;;14.29;50.25391;958.1099;;;;
2019/04/27 14:46:43;;;;;;;2;1.2;;;;;;;14.04;51.00684;958.0112;;;;
2019/04/27 14:49:08;;;;;;;1.9;1.1;;;;;;;13.55;50.34375;958.0754;;;;
2019/04/27 14:51:37;;;;;;;1.3;1.1;;;;;;;13.13;52.16406;957.9789;;;;
2019/04/27 14:54:17;;;;;;;1.8;1.1;;;;;;;13.13;53.30176;957.9621;;;;
2019/04/27 14:56:42;;;;;;;1.8;1.3;;;;;;;13.07;52.11133;957.926;;;;
2019/04/27 14:59:10;;;;;;;2.9;1.2;;;;;;;13.14;53.70898;957.8535;;;;
2019/04/27 15:01:38;;;;;;;1.3;1;;;;;;;13.3;52.24414;957.9801;;;;
2019/04/27 15:04:10;;;;;;;1.9;1.2;;;;;;;13.51;51.66406;957.9554;;;;
2019/04/27 15:06:38;;;;;;;3.1;1.5;;;;;;;14.93;49.24512;957.9868;;;;
2019/04/27 15:09:10;;;;;;;1.7;1.3;;;;;;;16.09;45.11035;957.9331;;;;
2019/04/27 15:11:38;;;;;;;1.6;1.2;;;;;;;16.07;47.94727;957.8287;;;;
2019/04/27 15:14:06;;;;;;;1.7;1.3;;;;;;;16.33;45.73145;957.8582;;;;
2019/04/27 15:16:31;;;;;;;2.1;1.5;;;;;;;15.24;47.37891;957.7756;;;;
2019/04/27 15:18:59;;;;;;;1.5;1.3;;;;;;;15.44;48.48633;957.8401;;;;
2019/04/27 15:21:26;;;;;;;2;1.4;;;;;;;14.84;49.64355;957.8309;;;;
2019/04/27 15:23:58;;;;;;;1.8;1.5;;;;;;;14.15;52.18262;957.8437;;;;
2019/04/27 15:26:26;;;;;;;2.5;1.6;;;;;;;14.44;51.53027;957.8039;;;;
2019/04/27 15:28:59;;;;;;;2;1.3;;;;;;;16;47.87012;957.7942;;;;
2019/04/27 15:31:32;;;;;;;2;1.1;;;;;;;17.68;42.38867;957.6903;;;;
2019/04/27 15:34:24;;;;;;;2.7;1.4;;;;;;;17.73;43.47266;957.7695;;;;
2019/04/27 15:39:06;;;;;;;2.4;1.3;;;;;;;16.03;46.63379;957.6752;;;;
2019/04/27 15:41:39;;;;;;;2;1.2;;;;;;;15.98;46.59375;957.5092;;;;
2019/04/27 15:44:09;;;;;;;1.9;1.3;;;;;;;15.39;47.34863;957.5457;;;;
2019/04/27 15:46:37;;;;;;;2.8;1.3;;;;;;;15.52;48.68066;957.5984;;;;
2019/04/27 15:49:02;;;;;;;2.1;1.2;;;;;;;15.52;48.28418;957.637;;;;
2019/04/27 15:51:27;;;;;;;1.8;1.2;;;;;;;14.7;49.80176;957.7372;;;;
2019/04/27 15:53:55;;;;;;;2.2;1.3;;;;;;;14.08;52.54492;957.655;;;;
2019/04/27 15:56:23;;;;;;;2;1.3;;;;;;;14.16;52.7998;957.6883;;;;
2019/04/27 15:58:51;;;;;;;2.1;1.3;;;;;;;13.97;52.33496;957.6514;;;;
2019/04/27 16:01:16;;;;;;;1.7;1.2;;;;;;;13.93;52.28418;957.6175;;;;
2019/04/27 16:03:44;;;;;;;1.6;1.1;;;;;;;13.99;53.33789;957.6102;;;;
2019/04/27 16:06:12;;;;;;;1.5;1.2;;;;;;;15.14;48.7334;957.582;;;;
2019/04/27 16:08:40;;;;;;;1.3;1;;;;;;;15.18;48.58398;957.5561;;;;
2019/04/27 16:11:05;;;;;;;2.4;1;;;;;;;14.88;49.77539;957.6289;;;;
2019/04/27 16:13:32;;;;;;;1.6;1.1;;;;;;;14.07;52.53418;957.6945;;;;